TimeCDT,TemperatureF,Dew PointF,Humidity,Sea Level PressureIn,VisibilityMPH,Wind Direction,Wind SpeedMPH,Gust SpeedMPH,PrecipitationIn,Events,Conditions,WindDirDegrees,DateUTC
12:13 AM,42.8,41.0,93,29.97,1.5,Calm,Calm,-,N/A,,Clear,0,2013-09-22 05:13:00
12:33 AM,42.8,39.2,87,29.96,3.0,Calm,Calm,-,N/A,,Clear,0,2013-09-22 05:33:00
12:53 AM,42.8,41.0,93,29.96,10.0,Calm,Calm,-,N/A,,Clear,0,2013-09-22 05:53:00
1:13 AM,41.0,39.2,93,29.96,0.5,Calm,Calm,-,N/A,Fog,Fog,0,2013-09-22 06:13:00
1:34 AM,42.8,39.2,87,29.96,5.0,Calm,Calm,-,N/A,,Clear,0,2013-09-22 06:34:00
1:53 AM,44.6,42.8,93,29.97,10.0,Calm,Calm,-,N/A,,Clear,0,2013-09-22 06:53:00
2:13 AM,44.6,44.6,100,29.96,10.0,East,4.6,-,N/A,,Clear,80,2013-09-22 07:13:00
2:34 AM,46.4,44.6,93,29.95,10.0,East,5.8,-,N/A,,Clear,100,2013-09-22 07:34:00
2:53 AM,46.4,42.8,87,29.96,10.0,ESE,3.5,-,N/A,,Clear,120,2013-09-22 07:53:00
3:13 AM,44.6,42.8,93,29.96,10.0,ESE,3.5,-,N/A,,Clear,110,2013-09-22 08:13:00
3:34 AM,44.6,42.8,93,29.96,10.0,East,3.5,-,N/A,,Clear,100,2013-09-22 08:34:00
3:53 AM,44.6,42.8,93,29.96,10.0,East,3.5,-,N/A,,Clear,100,2013-09-22 08:53:00
4:13 AM,44.6,42.8,93,29.96,10.0,East,3.5,-,N/A,,Clear,100,2013-09-22 09:13:00
4:34 AM,42.8,41.0,93,29.96,10.0,East,3.5,-,N/A,,Clear,100,2013-09-22 09:34:00
4:53 AM,42.8,42.8,100,29.96,10.0,Calm,Calm,-,N/A,,Clear,0,2013-09-22 09:53:00
5:13 AM,42.8,41.0,93,29.97,10.0,Calm,Calm,-,N/A,,Clear,0,2013-09-22 10:13:00
5:33 AM,42.8,41.0,93,29.97,10.0,East,3.5,-,N/A,,Clear,100,2013-09-22 10:33:00
5:53 AM,42.8,41.0,93,29.97,10.0,ESE,3.5,-,N/A,,Clear,110,2013-09-22 10:53:00
6:13 AM,42.8,41.0,93,29.98,10.0,East,4.6,-,N/A,,Clear,90,2013-09-22 11:13:00
6:33 AM,42.8,42.8,100,29.98,10.0,East,4.6,-,N/A,,Clear,100,2013-09-22 11:33:00
6:53 AM,44.6,42.8,93,29.98,10.0,East,4.6,-,N/A,,Clear,90,2013-09-22 11:53:00
7:13 AM,44.6,42.8,93,29.98,10.0,East,5.8,-,N/A,,Clear,100,2013-09-22 12:13:00
7:33 AM,44.6,42.8,93,29.98,10.0,East,5.8,-,N/A,,Clear,100,2013-09-22 12:33:00
7:53 AM,44.6,42.8,93,29.97,10.0,East,8.1,-,N/A,,Clear,90,2013-09-22 12:53:00
8:13 AM,46.4,44.6,93,29.97,10.0,East,8.1,-,N/A,,Clear,100,2013-09-22 13:13:00
8:33 AM,48.2,44.6,87,29.97,10.0,ESE,6.9,-,N/A,,Clear,110,2013-09-22 13:33:00
8:53 AM,50.0,46.4,87,29.96,10.0,ESE,9.2,16.1,N/A,,Clear,110,2013-09-22 13:53:00
9:13 AM,51.8,46.4,82,29.96,10.0,ESE,10.4,-,N/A,,Clear,110,2013-09-22 14:13:00
9:33 AM,53.6,46.4,77,29.96,10.0,ESE,10.4,16.1,N/A,,Clear,120,2013-09-22 14:33:00
9:53 AM,55.4,46.4,72,29.97,10.0,ESE,11.5,-,N/A,,Clear,120,2013-09-22 14:53:00
10:13 AM,57.2,48.2,72,29.97,10.0,ESE,9.2,-,N/A,,Clear,110,2013-09-22 15:13:00
10:33 AM,59.0,48.2,67,29.97,10.0,ESE,12.7,-,N/A,,Clear,110,2013-09-22 15:33:00
10:53 AM,60.8,48.2,63,29.96,10.0,ESE,13.8,-,N/A,,Clear,120,2013-09-22 15:53:00
11:13 AM,62.6,48.2,59,29.96,10.0,ESE,13.8,-,N/A,,Clear,120,2013-09-22 16:13:00
11:33 AM,62.6,48.2,59,29.95,10.0,ESE,13.8,-,N/A,,Clear,110,2013-09-22 16:33:00
11:53 AM,64.4,50.0,59,29.94,10.0,East,12.7,-,N/A,,Clear,100,2013-09-22 16:53:00
12:13 PM,66.2,48.2,52,29.93,10.0,SE,15.0,18.4,N/A,,Clear,130,2013-09-22 17:13:00
12:33 PM,66.2,50.0,56,29.92,10.0,ESE,16.1,19.6,N/A,,Clear,110,2013-09-22 17:33:00
12:53 PM,68.0,50.0,52,29.91,10.0,ESE,12.7,19.6,N/A,,Clear,120,2013-09-22 17:53:00
1:13 PM,69.8,51.8,53,29.91,10.0,ESE,10.4,16.1,N/A,,Clear,120,2013-09-22 18:13:00
1:33 PM,69.8,51.8,53,29.90,10.0,ESE,11.5,18.4,N/A,,Clear,120,2013-09-22 18:33:00
1:53 PM,69.8,51.8,53,29.89,10.0,ESE,11.5,19.6,N/A,,Clear,110,2013-09-22 18:53:00
2:13 PM,71.6,51.8,50,29.89,10.0,ESE,12.7,20.7,N/A,,Clear,120,2013-09-22 19:13:00
2:33 PM,71.6,51.8,50,29.88,10.0,ESE,11.5,19.6,N/A,,Clear,120,2013-09-22 19:33:00
2:53 PM,71.6,51.8,50,29.88,10.0,SE,16.1,20.7,N/A,,Clear,130,2013-09-22 19:53:00
3:13 PM,71.6,51.8,50,29.88,10.0,ESE,12.7,18.4,N/A,,Clear,120,2013-09-22 20:13:00
3:33 PM,71.6,51.8,50,29.87,10.0,ESE,16.1,20.7,N/A,,Clear,120,2013-09-22 20:33:00
3:53 PM,71.6,53.6,53,29.86,10.0,ESE,15.0,20.7,N/A,,Clear,120,2013-09-22 20:53:00
4:13 PM,71.6,53.6,53,29.86,10.0,SE,12.7,20.7,N/A,,Clear,130,2013-09-22 21:13:00
4:33 PM,71.6,53.6,53,29.86,10.0,ESE,13.8,19.6,N/A,,Clear,120,2013-09-22 21:33:00
4:53 PM,71.6,53.6,53,29.85,10.0,SE,10.4,-,N/A,,Clear,130,2013-09-22 21:53:00
5:13 PM,71.6,53.6,53,29.85,10.0,ESE,12.7,17.3,N/A,,Clear,120,2013-09-22 22:13:00
5:33 PM,71.6,53.6,53,29.85,10.0,ESE,12.7,-,N/A,,Clear,110,2013-09-22 22:33:00
5:53 PM,71.6,55.4,57,29.85,10.0,ESE,9.2,16.1,N/A,,Clear,120,2013-09-22 22:53:00
6:14 PM,69.8,55.4,60,29.85,10.0,ESE,9.2,-,N/A,,Clear,110,2013-09-22 23:14:00
6:33 PM,68.0,55.4,64,29.86,10.0,ESE,8.1,-,N/A,,Clear,110,2013-09-22 23:33:00
6:53 PM,66.2,53.6,64,29.86,10.0,ESE,6.9,16.1,N/A,,Clear,110,2013-09-22 23:53:00
7:14 PM,66.2,53.6,64,29.86,10.0,East,8.1,-,N/A,,Clear,100,2013-09-23 00:14:00
7:33 PM,64.4,53.6,68,29.86,10.0,ESE,8.1,-,N/A,,Clear,110,2013-09-23 00:33:00
7:53 PM,64.4,53.6,68,29.87,10.0,ESE,8.1,-,N/A,,Clear,110,2013-09-23 00:53:00
8:14 PM,62.6,53.6,72,29.87,10.0,ESE,6.9,-,N/A,,Clear,110,2013-09-23 01:14:00
8:33 PM,62.6,53.6,72,29.87,10.0,ESE,8.1,-,N/A,,Clear,110,2013-09-23 01:33:00
8:53 PM,62.6,53.6,72,29.87,10.0,ESE,10.4,-,N/A,,Clear,110,2013-09-23 01:53:00
9:14 PM,62.6,53.6,72,29.87,10.0,ESE,9.2,-,N/A,,Clear,120,2013-09-23 02:14:00
9:33 PM,62.6,53.6,72,29.87,10.0,ESE,9.2,-,N/A,,Clear,120,2013-09-23 02:33:00
9:53 PM,60.8,53.6,77,29.87,10.0,ESE,10.4,-,N/A,,Clear,120,2013-09-23 02:53:00
10:14 PM,60.8,53.6,77,29.87,10.0,ESE,9.2,-,N/A,,Clear,120,2013-09-23 03:14:00
10:33 PM,60.8,53.6,77,29.87,10.0,ESE,10.4,-,N/A,,Clear,120,2013-09-23 03:33:00
10:53 PM,60.8,53.6,77,29.87,10.0,SE,9.2,-,N/A,,Clear,130,2013-09-23 03:53:00
11:14 PM,60.8,53.6,77,29.88,10.0,ESE,8.1,-,N/A,,Clear,120,2013-09-23 04:14:00
11:33 PM,59.0,53.6,82,29.88,10.0,ESE,8.1,-,N/A,,Clear,120,2013-09-23 04:33:00
11:53 PM,59.0,53.6,82,29.88,10.0,ESE,5.8,-,N/A,,Clear,120,2013-09-23 04:53:00